Time;durP1;ratioP1;P1;durP2;ratioP2;P2;SDS_P1;SDS_P2;PMS_P1;PMS_P2;Temp;Humidity;BMP_temperature;BMP_pressure;BME280_temperature;BME280_humidity;BME280_pressure;Samples;Min_cycle;Max_cycle;Signal;HPM_P1;HPM_P2
2024/03/01 00:00:09;;;;;;;30.42;20.90;;;;;;;;;;515337;28;1354;-84
2024/03/01 00:00:24;;;;;;;31.75;21.50;;;;;;;;;;515755;28;1437;-83
2024/03/01 00:00:40;;;;;;;31.33;21.93;;;;;;;;;;516025;28;1393;-84
2024/03/01 00:00:55;;;;;;;30.80;21.60;;;;;;;;;;516359;28;1449;-84
2024/03/01 00:01:11;;;;;;;30.40;21.13;;;;;;;;;;516325;28;1784;-84
2024/03/01 00:01:26;;;;;;;29.80;20.77;;;;;;;;;;517116;28;1364;-83
2024/03/01 00:01:42;;;;;;;30.23;20.73;;;;;;;;;;519952;28;1369;-84
2024/03/01 00:01:57;;;;;;;29.98;20.70;;;;;;;;;;520072;28;1423;-84
2024/03/01 00:02:12;;;;;;;30.27;20.93;;;;;;;;;;521168;28;1470;-84
2024/03/01 00:02:28;;;;;;;29.43;20.53;;;;;;;;;;519288;28;1293;-84
2024/03/01 00:02:43;;;;;;;28.17;20.23;;;;;;;;;;517591;28;1566;-84
2024/03/01 00:02:58;;;;;;;30.83;21.17;;;;;;;;;;517486;28;1280;-84
2024/03/01 00:03:14;;;;;;;30.93;21.23;;;;;;;;;;517716;28;1501;-84
2024/03/01 00:03:30;;;;;;;30.15;20.88;;;;;;;;;;518560;28;1354;-85
2024/03/01 00:03:45;;;;;;;30.70;20.83;;;;;;;;;;515892;28;1676;-85
2024/03/01 00:04:01;;;;;;;31.20;21.13;;;;;;;;;;517212;28;1496;-84
2024/03/01 00:04:17;;;;;;;30.20;21.07;;;;;;;;;;516231;28;1417;-84
2024/03/01 00:04:33;;;;;;;29.85;20.88;;;;;;;;;;515905;28;1635;-84
2024/03/01 00:04:48;;;;;;;30.13;21.07;;;;;;;;;;516607;28;1417;-84
2024/03/01 00:05:04;;;;;;;30.13;20.90;;;;;;;;;;517236;28;1578;-85
2024/03/01 00:05:20;;;;;;;30.10;20.77;;;;;;;;;;514556;28;1354;-86
2024/03/01 00:05:35;;;;;;;30.00;20.92;;;;;;;;;;515433;28;1675;-84
2024/03/01 00:05:51;;;;;;;30.98;21.10;;;;;;;;;;514824;28;1438;-84
2024/03/01 00:06:07;;;;;;;32.07;21.40;;;;;;;;;;512473;28;1346;-84
2024/03/01 00:06:22;;;;;;;31.13;21.40;;;;;;;;;;512618;28;2297;-85
2024/03/01 00:06:37;;;;;;;29.67;21.17;;;;;;;;;;512848;28;1372;-84
2024/03/01 00:06:52;;;;;;;29.65;21.10;;;;;;;;;;513198;28;1465;-84
2024/03/01 00:07:08;;;;;;;28.53;20.77;;;;;;;;;;515382;28;1474;-83
2024/03/01 00:07:24;;;;;;;28.97;20.87;;;;;;;;;;516503;28;1591;-84
2024/03/01 00:07:40;;;;;;;30.83;21.50;;;;;;;;;;516095;28;1401;-85
2024/03/01 00:07:57;;;;;;;30.97;21.47;;;;;;;;;;517659;28;1996;-84
2024/03/01 00:08:12;;;;;;;30.83;21.27;;;;;;;;;;518666;28;1457;-84
2024/03/01 00:08:27;;;;;;;29.58;21.15;;;;;;;;;;519624;28;1401;-84
2024/03/01 00:08:43;;;;;;;29.37;21.27;;;;;;;;;;516534;28;1433;-84
2024/03/01 00:08:58;;;;;;;29.97;21.07;;;;;;;;;;517501;28;1239;-84
2024/03/01 00:09:14;;;;;;;30.52;21.25;;;;;;;;;;514747;28;1584;-84
2024/03/01 00:09:29;;;;;;;31.63;21.77;;;;;;;;;;515271;28;2065;-84
2024/03/01 00:09:44;;;;;;;29.87;20.73;;;;;;;;;;516434;28;1538;-85
2024/03/01 00:10:00;;;;;;;29.70;20.73;;;;;;;;;;517098;28;1274;-84
2024/03/01 00:10:15;;;;;;;32.40;21.80;;;;;;;;;;516836;28;1578;-84
2024/03/01 00:10:30;;;;;;;30.85;21.55;;;;;;;;;;517734;28;1414;-84
2024/03/01 00:10:46;;;;;;;30.87;21.73;;;;;;;;;;518543;28;1554;-84
2024/03/01 00:11:01;;;;;;;31.40;21.80;;;;;;;;;;518996;28;1342;-85
2024/03/01 00:11:16;;;;;;;30.90;21.60;;;;;;;;;;520104;28;1941;-85
2024/03/01 00:11:32;;;;;;;31.07;21.43;;;;;;;;;;516769;28;1265;-84
2024/03/01 00:11:47;;;;;;;30.23;21.10;;;;;;;;;;519530;28;1456;-85
2024/03/01 00:12:03;;;;;;;34.50;21.60;;;;;;;;;;518185;28;1408;-84
2024/03/01 00:12:18;;;;;;;33.07;21.27;;;;;;;;;;519645;28;1455;-84
2024/03/01 00:12:34;;;;;;;29.50;20.98;;;;;;;;;;518972;28;1400;-85
2024/03/01 00:12:50;;;;;;;31.88;21.45;;;;;;;;;;518442;28;2123;-85
2024/03/01 00:13:06;;;;;;;31.48;21.48;;;;;;;;;;518624;28;1616;-84
2024/03/01 00:13:21;;;;;;;29.73;20.97;;;;;;;;;;518478;28;1471;-83
2024/03/01 00:13:36;;;;;;;30.83;21.13;;;;;;;;;;516736;28;1294;-85
2024/03/01 00:13:52;;;;;;;30.93;21.40;;;;;;;;;;515046;28;1370;-85
2024/03/01 00:14:07;;;;;;;29.43;21.27;;;;;;;;;;513163;28;1383;-85
2024/03/01 00:14:22;;;;;;;29.13;20.90;;;;;;;;;;512548;28;1865;-83
2024/03/01 00:14:38;;;;;;;28.37;20.07;;;;;;;;;;512973;28;1355;-85
2024/03/01 00:14:53;;;;;;;28.97;20.43;;;;;;;;;;512400;28;1411;-85
2024/03/01 00:15:09;;;;;;;28.93;20.60;;;;;;;;;;512488;28;1435;-84
2024/03/01 00:15:24;;;;;;;28.27;20.23;;;;;;;;;;512807;28;1486;-83
2024/03/01 00:15:39;;;;;;;29.33;20.65;;;;;;;;;;512488;28;1423;-85
2024/03/01 00:15:55;;;;;;;32.17;21.37;;;;;;;;;;514337;28;1477;-85
2024/03/01 00:16:10;;;;;;;32.10;21.73;;;;;;;;;;516430;28;1456;-85
2024/03/01 00:16:25;;;;;;;31.05;21.42;;;;;;;;;;516674;28;1575;-85
2024/03/01 00:16:41;;;;;;;32.67;21.40;;;;;;;;;;518166;28;1409;-85
2024/03/01 00:16:56;;;;;;;33.17;21.93;;;;;;;;;;517013;28;1520;-85
2024/03/01 00:17:11;;;;;;;32.13;21.75;;;;;;;;;;518162;28;1416;-85
2024/03/01 00:17:27;;;;;;;32.67;21.33;;;;;;;;;;517254;28;1250;-84
2024/03/01 00:17:42;;;;;;;32.42;21.92;;;;;;;;;;517462;28;1822;-85
2024/03/01 00:17:57;;;;;;;31.30;21.87;;;;;;;;;;520110;28;1240;-85
2024/03/01 00:18:13;;;;;;;31.97;21.63;;;;;;;;;;517929;28;1345;-86
2024/03/01 00:18:28;;;;;;;32.17;21.90;;;;;;;;;;518092;28;1405;-83
2024/03/01 00:18:43;;;;;;;32.33;21.93;;;;;;;;;;516921;28;1377;-85
2024/03/01 00:18:59;;;;;;;33.70;22.33;;;;;;;;;;520140;28;1348;-84
2024/03/01 00:19:14;;;;;;;33.67;22.70;;;;;;;;;;520420;28;1900;-85
2024/03/01 00:19:30;;;;;;;33.17;22.73;;;;;;;;;;519793;28;1386;-84
2024/03/01 00:19:45;;;;;;;33.67;23.02;;;;;;;;;;517123;28;1457;-84
2024/03/01 00:20:00;;;;;;;32.70;22.57;;;;;;;;;;516997;28;1429;-83
2024/03/01 00:20:16;;;;;;;31.77;21.83;;;;;;;;;;516956;28;1614;-85
2024/03/01 00:20:31;;;;;;;30.48;21.60;;;;;;;;;;516407;28;1350;-85
2024/03/01 00:20:47;;;;;;;31.43;22.10;;;;;;;;;;517830;28;1863;-85
2024/03/01 00:21:02;;;;;;;33.17;22.45;;;;;;;;;;517518;28;1369;-84
2024/03/01 00:21:17;;;;;;;32.97;22.23;;;;;;;;;;517427;28;1437;-85
2024/03/01 00:21:33;;;;;;;32.03;22.08;;;;;;;;;;519186;28;1332;-86
2024/03/01 00:21:48;;;;;;;32.23;22.07;;;;;;;;;;522379;28;1624;-85
2024/03/01 00:22:03;;;;;;;32.63;22.17;;;;;;;;;;521440;28;1396;-84
2024/03/01 00:22:19;;;;;;;31.48;22.35;;;;;;;;;;519965;28;1361;-84
2024/03/01 00:22:34;;;;;;;31.40;22.17;;;;;;;;;;518160;28;2210;-86
2024/03/01 00:22:52;;;;;;;31.20;21.83;;;;;;;;;;515133;28;1582;-84
2024/03/01 00:23:07;;;;;;;31.80;22.08;;;;;;;;;;514495;28;1637;-84
2024/03/01 00:23:23;;;;;;;30.17;21.60;;;;;;;;;;511949;28;1254;-85
2024/03/01 00:23:38;;;;;;;30.00;21.23;;;;;;;;;;512003;28;1958;-86
2024/03/01 00:23:54;;;;;;;30.77;21.40;;;;;;;;;;512756;28;1872;-84
2024/03/01 00:24:09;;;;;;;29.83;21.30;;;;;;;;;;514631;28;2141;-85
2024/03/01 00:24:24;;;;;;;30.00;21.23;;;;;;;;;;514740;28;1142;-84
2024/03/01 00:24:41;;;;;;;30.07;21.33;;;;;;;;;;513547;28;1197;-83
2024/03/01 00:24:57;;;;;;;29.55;21.08;;;;;;;;;;515141;28;1470;-84
2024/03/01 00:25:12;;;;;;;30.20;21.08;;;;;;;;;;516484;28;1125;-85
2024/03/01 00:25:28;;;;;;;29.58;21.05;;;;;;;;;;516126;28;1414;-85
2024/03/01 00:25:46;;;;;;;28.53;20.77;;;;;;;;;;514313;28;1718;-84
2024/03/01 00:26:01;;;;;;;29.63;20.83;;;;;;;;;;516365;28;1342;-85
2024/03/01 00:26:16;;;;;;;29.97;20.70;;;;;;;;;;516097;28;1247;-84
2024/03/01 00:26:32;;;;;;;30.20;20.85;;;;;;;;;;514406;28;1446;-85
2024/03/01 00:26:47;;;;;;;29.97;20.73;;;;;;;;;;515817;28;1540;-84
2024/03/01 00:27:02;;;;;;;30.40;21.03;;;;;;;;;;517037;28;1304;-83
2024/03/01 00:27:18;;;;;;;29.75;20.90;;;;;;;;;;516800;28;1756;-84
2024/03/01 00:27:33;;;;;;;29.50;20.57;;;;;;;;;;516011;28;1174;-84
2024/03/01 00:27:49;;;;;;;30.50;21.17;;;;;;;;;;516506;28;1444;-85
2024/03/01 00:28:04;;;;;;;31.03;21.17;;;;;;;;;;514318;28;1255;-85
2024/03/01 00:28:20;;;;;;;30.97;21.17;;;;;;;;;;514465;28;1418;-85
2024/03/01 00:28:36;;;;;;;30.83;21.15;;;;;;;;;;514078;28;1060;-85
2024/03/01 00:28:51;;;;;;;32.33;21.15;;;;;;;;;;514612;28;1405;-84
2024/03/01 00:29:06;;;;;;;31.93;21.23;;;;;;;;;;516746;28;2117;-85
2024/03/01 00:29:22;;;;;;;31.38;20.88;;;;;;;;;;516628;28;1966;-85
2024/03/01 00:29:39;;;;;;;32.00;21.20;;;;;;;;;;516355;28;1374;-85
2024/03/01 00:29:54;;;;;;;30.92;21.30;;;;;;;;;;518938;28;1386;-84
2024/03/01 00:30:10;;;;;;;30.90;21.07;;;;;;;;;;520000;28;1383;-84
2024/03/01 00:30:25;;;;;;;30.98;20.95;;;;;;;;;;518079;28;1428;-85
2024/03/01 00:30:40;;;;;;;30.55;20.67;;;;;;;;;;518596;28;2190;-85
2024/03/01 00:30:56;;;;;;;30.00;20.90;;;;;;;;;;516732;28;1362;-85
2024/03/01 00:31:11;;;;;;;30.50;21.07;;;;;;;;;;515097;28;1599;-85
2024/03/01 00:31:26;;;;;;;31.30;21.50;;;;;;;;;;513429;28;1415;-85
2024/03/01 00:31:42;;;;;;;30.63;21.73;;;;;;;;;;514969;28;1359;-85
2024/03/01 00:31:57;;;;;;;31.40;21.70;;;;;;;;;;513109;28;1439;-85
2024/03/01 00:32:12;;;;;;;32.28;21.55;;;;;;;;;;513675;28;1803;-85
2024/03/01 00:32:28;;;;;;;32.27;21.53;;;;;;;;;;515528;28;1228;-85
2024/03/01 00:32:43;;;;;;;31.00;21.00;;;;;;;;;;515149;28;1280;-85
2024/03/01 00:32:59;;;;;;;30.08;21.60;;;;;;;;;;518121;28;1533;-85
2024/03/01 00:33:14;;;;;;;30.60;22.17;;;;;;;;;;517369;28;1331;-85
2024/03/01 00:33:30;;;;;;;30.55;21.67;;;;;;;;;;515573;28;1448;-84
2024/03/01 00:33:45;;;;;;;30.57;21.57;;;;;;;;;;514053;28;1923;-84
2024/03/01 00:34:00;;;;;;;30.77;21.53;;;;;;;;;;516628;28;3055;-85
2024/03/01 00:34:15;;;;;;;31.60;21.77;;;;;;;;;;516417;28;1406;-85
2024/03/01 00:34:31;;;;;;;29.43;20.87;;;;;;;;;;516089;28;1382;-85
2024/03/01 00:34:46;;;;;;;28.60;20.35;;;;;;;;;;512456;28;1407;-85
2024/03/01 00:35:02;;;;;;;27.97;19.93;;;;;;;;;;514171;28;1436;-83
2024/03/01 00:35:17;;;;;;;27.37;19.50;;;;;;;;;;515225;28;1438;-86
2024/03/01 00:35:32;;;;;;;28.33;19.75;;;;;;;;;;514512;28;2071;-85
2024/03/01 00:35:48;;;;;;;27.37;19.53;;;;;;;;;;514218;28;1165;-84
2024/03/01 00:36:04;;;;;;;28.70;20.48;;;;;;;;;;515212;28;1433;-85
2024/03/01 00:36:19;;;;;;;29.77;21.30;;;;;;;;;;515862;28;1476;-84
2024/03/01 00:36:34;;;;;;;30.13;21.40;;;;;;;;;;515478;28;1156;-85
2024/03/01 00:36:50;;;;;;;30.37;21.03;;;;;;;;;;515219;28;1256;-84
2024/03/01 00:37:05;;;;;;;28.57;20.50;;;;;;;;;;513602;28;1352;-85
2024/03/01 00:37:20;;;;;;;29.80;20.92;;;;;;;;;;515206;28;1985;-84
2024/03/01 00:37:35;;;;;;;30.83;21.40;;;;;;;;;;518921;28;1282;-85
2024/03/01 00:37:51;;;;;;;30.20;20.87;;;;;;;;;;515676;28;1274;-85
2024/03/01 00:38:06;;;;;;;29.95;20.58;;;;;;;;;;516849;28;1425;-85
2024/03/01 00:38:21;;;;;;;31.00;21.50;;;;;;;;;;518094;28;1433;-85
2024/03/01 00:38:37;;;;;;;31.10;21.27;;;;;;;;;;515719;28;1168;-85
2024/03/01 00:38:52;;;;;;;29.38;20.67;;;;;;;;;;516767;28;1303;-85
2024/03/01 00:39:08;;;;;;;29.13;20.70;;;;;;;;;;518153;28;2141;-85
2024/03/01 00:39:23;;;;;;;28.23;20.20;;;;;;;;;;518261;28;1385;-86
2024/03/01 00:39:39;;;;;;;29.13;20.43;;;;;;;;;;517444;28;1295;-86
2024/03/01 00:39:54;;;;;;;30.85;20.88;;;;;;;;;;516072;28;1344;-84
2024/03/01 00:40:09;;;;;;;29.50;20.57;;;;;;;;;;514579;28;1489;-83
2024/03/01 00:40:25;;;;;;;29.40;20.73;;;;;;;;;;514487;28;1514;-84
2024/03/01 00:40:40;;;;;;;29.38;20.95;;;;;;;;;;515209;28;1466;-83
2024/03/01 00:40:56;;;;;;;29.70;20.80;;;;;;;;;;516880;28;1351;-86
2024/03/01 00:41:11;;;;;;;30.55;20.65;;;;;;;;;;519346;28;1349;-85
2024/03/01 00:41:26;;;;;;;31.03;20.73;;;;;;;;;;519435;28;1439;-84
2024/03/01 00:41:42;;;;;;;31.90;21.40;;;;;;;;;;516442;28;1449;-85
2024/03/01 00:41:57;;;;;;;31.90;21.40;;;;;;;;;;518075;28;1318;-84
2024/03/01 00:42:12;;;;;;;31.57;21.10;;;;;;;;;;516555;28;1575;-85
2024/03/01 00:42:28;;;;;;;31.23;21.57;;;;;;;;;;518135;28;1401;-84
2024/03/01 00:42:43;;;;;;;30.98;21.65;;;;;;;;;;516342;28;1445;-84
2024/03/01 00:42:59;;;;;;;30.43;21.47;;;;;;;;;;516686;28;1342;-84
2024/03/01 00:43:14;;;;;;;31.83;21.70;;;;;;;;;;516324;28;1231;-84
2024/03/01 00:43:29;;;;;;;31.87;22.13;;;;;;;;;;518862;28;1429;-84
2024/03/01 00:43:45;;;;;;;32.03;21.83;;;;;;;;;;517960;28;1921;-84
2024/03/01 00:44:01;;;;;;;33.03;21.63;;;;;;;;;;518227;28;1425;-84
2024/03/01 00:44:16;;;;;;;33.78;22.15;;;;;;;;;;517612;28;1262;-84
2024/03/01 00:44:32;;;;;;;31.98;21.48;;;;;;;;;;518946;28;1295;-84
2024/03/01 00:44:47;;;;;;;30.10;20.80;;;;;;;;;;519199;28;1282;-84
2024/03/01 00:45:03;;;;;;;30.67;21.13;;;;;;;;;;519164;28;1353;-86
2024/03/01 00:45:18;;;;;;;31.08;21.30;;;;;;;;;;519208;28;1294;-84
2024/03/01 00:45:33;;;;;;;31.67;21.70;;;;;;;;;;520079;28;1286;-85
2024/03/01 00:45:49;;;;;;;30.58;21.30;;;;;;;;;;519243;28;1380;-84
2024/03/01 00:46:04;;;;;;;29.23;20.30;;;;;;;;;;517193;28;1406;-84
2024/03/01 00:46:19;;;;;;;29.03;20.50;;;;;;;;;;517273;28;1390;-85
2024/03/01 00:46:35;;;;;;;29.55;20.67;;;;;;;;;;514873;28;1437;-85
2024/03/01 00:46:51;;;;;;;29.52;20.38;;;;;;;;;;514419;28;1460;-85
2024/03/01 00:47:06;;;;;;;29.50;20.57;;;;;;;;;;513928;28;1884;-84
2024/03/01 00:47:21;;;;;;;29.97;20.70;;;;;;;;;;515548;28;1343;-85
2024/03/01 00:47:47;;;;;;;29.20;20.42;;;;;;;;;;517123;28;1345;-85
2024/03/01 00:48:13;;;;;;;28.70;20.83;;;;;;;;;;518279;28;1384;-84
2024/03/01 00:48:29;;;;;;;30.30;20.75;;;;;;;;;;518769;28;1380;-84
2024/03/01 00:48:44;;;;;;;29.60;20.60;;;;;;;;;;518540;28;2151;-84
2024/03/01 00:48:59;;;;;;;31.20;21.65;;;;;;;;;;518882;28;1240;-84
2024/03/01 00:49:15;;;;;;;30.97;21.77;;;;;;;;;;517305;28;1354;-84
2024/03/01 00:49:30;;;;;;;29.23;21.15;;;;;;;;;;516702;28;1961;-84
2024/03/01 00:49:48;;;;;;;29.23;21.23;;;;;;;;;;516038;28;1450;-85
2024/03/01 00:50:04;;;;;;;31.70;21.88;;;;;;;;;;516523;28;1423;-85
2024/03/01 00:50:22;;;;;;;31.77;21.45;;;;;;;;;;516170;28;1831;-85
2024/03/01 00:50:38;;;;;;;31.92;21.67;;;;;;;;;;515197;28;1378;-85
2024/03/01 00:50:53;;;;;;;30.15;21.25;;;;;;;;;;517040;28;1279;-84
2024/03/01 00:51:09;;;;;;;29.60;20.93;;;;;;;;;;515498;28;2336;-85
2024/03/01 00:51:24;;;;;;;28.67;20.60;;;;;;;;;;515737;28;1859;-85
2024/03/01 00:51:39;;;;;;;28.17;20.35;;;;;;;;;;515150;28;1867;-85
2024/03/01 00:51:54;;;;;;;30.27;20.83;;;;;;;;;;515523;28;1268;-84
2024/03/01 00:52:10;;;;;;;30.33;20.80;;;;;;;;;;515349;28;1488;-85
2024/03/01 00:52:25;;;;;;;29.95;20.92;;;;;;;;;;515198;28;1425;-85
2024/03/01 00:52:42;;;;;;;30.90;21.57;;;;;;;;;;515653;28;1327;-85
2024/03/01 00:52:58;;;;;;;31.63;21.58;;;;;;;;;;515705;28;1422;-84
2024/03/01 00:53:13;;;;;;;32.40;21.77;;;;;;;;;;515546;28;1508;-85
2024/03/01 00:53:28;;;;;;;30.42;21.27;;;;;;;;;;515578;28;1545;-85
2024/03/01 00:53:44;;;;;;;29.83;21.03;;;;;;;;;;515651;28;1898;-84
2024/03/01 00:53:59;;;;;;;30.43;21.30;;;;;;;;;;518277;28;1158;-84
2024/03/01 00:54:14;;;;;;;30.60;20.92;;;;;;;;;;520692;28;1400;-85
2024/03/01 00:54:30;;;;;;;30.50;21.17;;;;;;;;;;520690;28;1328;-85
2024/03/01 00:54:45;;;;;;;30.70;21.50;;;;;;;;;;518414;28;1385;-84
2024/03/01 00:55:00;;;;;;;31.45;21.60;;;;;;;;;;519547;28;1373;-85
2024/03/01 00:55:16;;;;;;;30.90;21.43;;;;;;;;;;517975;28;1408;-84
2024/03/01 00:55:32;;;;;;;30.10;21.30;;;;;;;;;;518049;28;1667;-87
2024/03/01 00:55:47;;;;;;;31.50;21.65;;;;;;;;;;518710;28;1401;-84
2024/03/01 00:56:03;;;;;;;31.77;21.80;;;;;;;;;;519071;28;1353;-85
2024/03/01 00:56:18;;;;;;;32.00;21.53;;;;;;;;;;516178;28;1245;-85
2024/03/01 00:56:33;;;;;;;31.90;21.40;;;;;;;;;;517428;28;1488;-85
2024/03/01 00:56:48;;;;;;;31.70;22.30;;;;;;;;;;518951;28;1395;-84
2024/03/01 00:57:04;;;;;;;31.93;22.67;;;;;;;;;;519277;28;1809;-85
2024/03/01 00:57:19;;;;;;;30.92;21.90;;;;;;;;;;517380;28;1373;-85
2024/03/01 00:57:35;;;;;;;31.47;21.83;;;;;;;;;;519205;28;1084;-85
2024/03/01 00:57:50;;;;;;;31.20;21.65;;;;;;;;;;515227;28;1209;-84
2024/03/01 00:58:05;;;;;;;30.63;21.20;;;;;;;;;;515259;28;1406;-85
2024/03/01 00:58:21;;;;;;;34.17;21.67;;;;;;;;;;516282;28;1390;-85
2024/03/01 00:58:36;;;;;;;34.83;22.02;;;;;;;;;;516206;28;1716;-85
2024/03/01 00:58:51;;;;;;;31.83;21.57;;;;;;;;;;516367;28;2191;-85
2024/03/01 00:59:07;;;;;;;32.40;22.13;;;;;;;;;;517386;28;1401;-84
2024/03/01 00:59:23;;;;;;;33.08;22.05;;;;;;;;;;517289;28;1405;-84
2024/03/01 00:59:38;;;;;;;32.10;21.80;;;;;;;;;;517338;28;1092;-85
2024/03/01 00:59:53;;;;;;;33.20;22.53;;;;;;;;;;517615;28;1468;-84
2024/03/01 01:00:09;;;;;;;34.10;22.47;;;;;;;;;;516430;28;1338;-83
2024/03/01 01:00:25;;;;;;;31.45;21.42;;;;;;;;;;516961;28;1929;-85
2024/03/01 01:00:41;;;;;;;30.38;21.27;;;;;;;;;;516754;28;1374;-85
2024/03/01 01:00:56;;;;;;;33.33;22.20;;;;;;;;;;519327;28;1166;-84
2024/03/01 01:01:12;;;;;;;33.63;21.90;;;;;;;;;;517503;28;1448;-84
2024/03/01 01:01:28;;;;;;;33.25;21.73;;;;;;;;;;517159;28;1390;-85
2024/03/01 01:01:43;;;;;;;33.33;21.58;;;;;;;;;;517101;28;1436;-85
2024/03/01 01:01:58;;;;;;;31.47;21.23;;;;;;;;;;517247;28;1164;-84
2024/03/01 01:02:14;;;;;;;30.45;21.20;;;;;;;;;;516584;28;1802;-85
2024/03/01 01:02:29;;;;;;;31.10;21.17;;;;;;;;;;514751;28;1401;-84
2024/03/01 01:02:44;;;;;;;31.77;21.30;;;;;;;;;;517148;28;1322;-84
2024/03/01 01:03:00;;;;;;;32.03;21.92;;;;;;;;;;516730;28;1450;-84
2024/03/01 01:03:15;;;;;;;35.27;22.40;;;;;;;;;;518988;28;1417;-84
2024/03/01 01:03:30;;;;;;;34.73;21.87;;;;;;;;;;518572;28;1491;-84
2024/03/01 01:03:46;;;;;;;32.72;21.95;;;;;;;;;;517229;28;1401;-84
2024/03/01 01:04:01;;;;;;;33.87;22.37;;;;;;;;;;517543;28;1397;-84
2024/03/01 01:04:16;;;;;;;33.50;22.37;;;;;;;;;;517599;28;1445;-84
2024/03/01 01:04:32;;;;;;;34.10;22.83;;;;;;;;;;517009;28;1382;-86
2024/03/01 01:04:47;;;;;;;34.07;22.73;;;;;;;;;;517009;28;1409;-85
2024/03/01 01:05:03;;;;;;;33.97;22.30;;;;;;;;;;515316;28;1413;-85
2024/03/01 01:05:18;;;;;;;32.45;21.90;;;;;;;;;;515282;28;1864;-84
2024/03/01 01:05:33;;;;;;;30.17;21.50;;;;;;;;;;517183;28;1362;-85
2024/03/01 01:05:49;;;;;;;31.25;21.52;;;;;;;;;;516661;28;1311;-84
2024/03/01 01:06:04;;;;;;;30.93;21.50;;;;;;;;;;513170;28;1388;-84
2024/03/01 01:06:19;;;;;;;31.13;22.02;;;;;;;;;;513491;28;1467;-84
2024/03/01 01:06:35;;;;;;;32.00;22.00;;;;;;;;;;515107;28;1457;-84
2024/03/01 01:06:51;;;;;;;32.70;21.87;;;;;;;;;;514946;28;1493;-84
2024/03/01 01:07:06;;;;;;;32.35;22.23;;;;;;;;;;515039;28;1903;-84
2024/03/01 01:07:21;;;;;;;32.27;22.73;;;;;;;;;;515016;28;1627;-84
2024/03/01 01:07:37;;;;;;;32.42;22.38;;;;;;;;;;515083;28;1588;-85
2024/03/01 01:07:52;;;;;;;33.43;22.23;;;;;;;;;;515953;28;2122;-85
2024/03/01 01:08:07;;;;;;;33.33;22.13;;;;;;;;;;517617;28;1433;-85
2024/03/01 01:08:24;;;;;;;31.83;21.73;;;;;;;;;;519565;28;2347;-85
2024/03/01 01:08:39;;;;;;;33.17;22.10;;;;;;;;;;518902;28;1833;-84
2024/03/01 01:08:55;;;;;;;33.13;22.20;;;;;;;;;;517829;28;2392;-84
2024/03/01 01:09:11;;;;;;;32.20;22.17;;;;;;;;;;519990;28;1357;-84
2024/03/01 01:09:26;;;;;;;31.15;22.00;;;;;;;;;;517393;28;1928;-84
2024/03/01 01:09:42;;;;;;;31.23;21.73;;;;;;;;;;515515;28;1426;-84
2024/03/01 01:09:57;;;;;;;31.80;21.98;;;;;;;;;;515630;28;1172;-84
2024/03/01 01:10:13;;;;;;;32.53;22.10;;;;;;;;;;516979;28;1885;-84
2024/03/01 01:10:28;;;;;;;31.93;22.10;;;;;;;;;;517783;28;1378;-86
2024/03/01 01:10:43;;;;;;;31.15;22.15;;;;;;;;;;515510;28;1414;-83
2024/03/01 01:10:59;;;;;;;31.73;22.10;;;;;;;;;;515130;28;1334;-84
2024/03/01 01:11:14;;;;;;;31.87;22.23;;;;;;;;;;511903;28;1392;-83
2024/03/01 01:11:29;;;;;;;33.27;22.70;;;;;;;;;;513138;28;1284;-84
2024/03/01 01:11:45;;;;;;;34.10;22.30;;;;;;;;;;515354;28;3112;-84
2024/03/01 01:12:00;;;;;;;32.10;20.98;;;;;;;;;;514764;28;1595;-85
2024/03/01 01:12:15;;;;;;;31.20;20.83;;;;;;;;;;513693;28;1438;-84
2024/03/01 01:12:31;;;;;;;30.83;21.43;;;;;;;;;;513579;28;1411;-84
2024/03/01 01:12:46;;;;;;;30.60;21.52;;;;;;;;;;513383;28;1407;-85
2024/03/01 01:13:02;;;;;;;31.13;21.43;;;;;;;;;;513243;28;1532;-85
2024/03/01 01:13:17;;;;;;;32.53;22.42;;;;;;;;;;513501;28;1338;-85
2024/03/01 01:13:32;;;;;;;32.00;22.00;;;;;;;;;;512814;28;1381;-84
2024/03/01 01:13:48;;;;;;;32.53;21.50;;;;;;;;;;513072;28;1350;-84
2024/03/01 01:14:03;;;;;;;32.55;21.83;;;;;;;;;;513787;28;1362;-84
2024/03/01 01:14:19;;;;;;;33.23;21.50;;;;;;;;;;513089;28;1372;-85
2024/03/01 01:14:34;;;;;;;33.93;21.77;;;;;;;;;;513739;28;1280;-85
2024/03/01 01:14:50;;;;;;;30.65;21.45;;;;;;;;;;516676;28;1397;-84
2024/03/01 01:15:06;;;;;;;31.17;21.83;;;;;;;;;;516630;28;1927;-85
2024/03/01 01:15:21;;;;;;;32.60;22.30;;;;;;;;;;517391;28;1346;-84
2024/03/01 01:15:36;;;;;;;32.95;22.25;;;;;;;;;;518397;28;1302;-85
2024/03/01 01:15:52;;;;;;;32.87;21.80;;;;;;;;;;520362;28;1455;-84
2024/03/01 01:16:07;;;;;;;31.05;21.17;;;;;;;;;;519860;28;1344;-84
2024/03/01 01:16:23;;;;;;;29.40;21.27;;;;;;;;;;518255;28;1342;-84
2024/03/01 01:16:38;;;;;;;30.25;21.77;;;;;;;;;;520624;28;1812;-85
2024/03/01 01:16:53;;;;;;;31.27;21.57;;;;;;;;;;521047;28;1435;-85
2024/03/01 01:17:08;;;;;;;31.13;21.97;;;;;;;;;;521554;28;1593;-84
2024/03/01 01:17:24;;;;;;;31.58;22.55;;;;;;;;;;517685;28;1424;-85
2024/03/01 01:17:39;;;;;;;32.30;22.10;;;;;;;;;;517947;28;1444;-85
2024/03/01 01:17:54;;;;;;;31.20;21.43;;;;;;;;;;516281;28;1374;-84
2024/03/01 01:18:12;;;;;;;31.05;22.05;;;;;;;;;;515140;28;2009;-84
2024/03/01 01:18:27;;;;;;;30.00;21.58;;;;;;;;;;515576;28;1369;-85
2024/03/01 01:18:43;;;;;;;30.92;21.23;;;;;;;;;;516131;28;1356;-84
2024/03/01 01:18:59;;;;;;;31.83;21.35;;;;;;;;;;516069;28;1394;-84
2024/03/01 01:19:14;;;;;;;31.37;21.43;;;;;;;;;;516218;28;1334;-83
2024/03/01 01:19:29;;;;;;;33.30;22.50;;;;;;;;;;516850;28;1354;-84
2024/03/01 01:19:45;;;;;;;33.70;22.57;;;;;;;;;;516866;28;1245;-84
2024/03/01 01:20:00;;;;;;;32.07;21.73;;;;;;;;;;517749;28;1488;-85
2024/03/01 01:20:16;;;;;;;32.20;22.00;;;;;;;;;;518633;28;1440;-84
2024/03/01 01:20:31;;;;;;;32.30;22.15;;;;;;;;;;518362;28;1369;-84
2024/03/01 01:20:46;;;;;;;32.57;22.30;;;;;;;;;;516554;28;1382;-85
2024/03/01 01:21:02;;;;;;;33.67;22.20;;;;;;;;;;517222;28;1357;-84
2024/03/01 01:21:17;;;;;;;32.97;21.43;;;;;;;;;;515596;28;1444;-84
2024/03/01 01:21:33;;;;;;;31.40;21.20;;;;;;;;;;513614;28;2162;-85
2024/03/01 01:21:48;;;;;;;32.13;21.47;;;;;;;;;;514533;28;1414;-85
2024/03/01 01:22:03;;;;;;;33.80;21.93;;;;;;;;;;514736;28;1355;-85
2024/03/01 01:22:19;;;;;;;33.22;22.05;;;;;;;;;;515044;28;1518;-84
2024/03/01 01:22:34;;;;;;;32.10;21.77;;;;;;;;;;514037;28;1395;-85
2024/03/01 01:22:50;;;;;;;31.48;21.52;;;;;;;;;;514786;28;1476;-86
2024/03/01 01:23:05;;;;;;;31.33;21.50;;;;;;;;;;514491;28;2165;-84
2024/03/01 01:23:20;;;;;;;32.17;21.80;;;;;;;;;;516908;28;1421;-83
2024/03/01 01:23:36;;;;;;;33.20;22.35;;;;;;;;;;518984;28;1282;-84
2024/03/01 01:23:51;;;;;;;33.70;22.87;;;;;;;;;;517445;28;1428;-84
2024/03/01 01:24:07;;;;;;;32.72;22.50;;;;;;;;;;517125;28;1397;-84
2024/03/01 01:24:22;;;;;;;32.87;22.13;;;;;;;;;;517835;28;1292;-84
2024/03/01 01:24:37;;;;;;;32.40;21.97;;;;;;;;;;518685;28;1912;-84
2024/03/01 01:24:53;;;;;;;30.15;21.50;;;;;;;;;;521008;28;1348;-84
2024/03/01 01:25:08;;;;;;;30.23;21.73;;;;;;;;;;518162;28;1381;-85
2024/03/01 01:25:24;;;;;;;31.33;22.20;;;;;;;;;;518584;28;1358;-84
2024/03/01 01:25:41;;;;;;;32.80;22.27;;;;;;;;;;517907;28;1440;-85
2024/03/01 01:25:57;;;;;;;32.95;22.02;;;;;;;;;;516501;28;1283;-85
2024/03/01 01:26:12;;;;;;;30.77;21.47;;;;;;;;;;515042;28;1840;-85
2024/03/01 01:26:28;;;;;;;30.73;21.50;;;;;;;;;;512766;28;1347;-84
2024/03/01 01:26:43;;;;;;;30.58;21.33;;;;;;;;;;515052;28;1461;-84
2024/03/01 01:26:59;;;;;;;31.20;21.47;;;;;;;;;;516265;28;1302;-83
2024/03/01 01:27:14;;;;;;;32.43;21.83;;;;;;;;;;518652;28;1403;-83
2024/03/01 01:27:30;;;;;;;31.90;21.83;;;;;;;;;;518533;28;1090;-83
2024/03/01 01:27:45;;;;;;;32.13;21.83;;;;;;;;;;517981;28;2019;-83
2024/03/01 01:28:00;;;;;;;32.38;21.45;;;;;;;;;;518879;28;1445;-83
2024/03/01 01:28:16;;;;;;;30.77;21.10;;;;;;;;;;520301;28;1676;-84
2024/03/01 01:28:31;;;;;;;30.60;21.57;;;;;;;;;;521923;28;1391;-84
2024/03/01 01:28:48;;;;;;;31.80;21.42;;;;;;;;;;522179;28;1351;-83
2024/03/01 01:29:04;;;;;;;32.42;21.27;;;;;;;;;;521485;28;1442;-83
2024/03/01 01:29:19;;;;;;;32.47;21.67;;;;;;;;;;517903;28;1924;-84
2024/03/01 01:29:34;;;;;;;29.75;20.95;;;;;;;;;;518179;28;1449;-83
2024/03/01 01:29:50;;;;;;;30.80;21.17;;;;;;;;;;517917;28;1099;-84
2024/03/01 01:30:05;;;;;;;32.47;21.83;;;;;;;;;;519411;28;1497;-83
2024/03/01 01:30:21;;;;;;;31.85;21.80;;;;;;;;;;520866;28;1417;-84
2024/03/01 01:30:37;;;;;;;30.77;21.38;;;;;;;;;;519422;28;1467;-83
2024/03/01 01:30:53;;;;;;;30.95;21.30;;;;;;;;;;519146;28;1256;-83
2024/03/01 01:31:08;;;;;;;31.57;21.30;;;;;;;;;;519973;28;1899;-82
2024/03/01 01:31:23;;;;;;;31.23;21.30;;;;;;;;;;521592;28;1375;-83
2024/03/01 01:31:39;;;;;;;30.80;21.40;;;;;;;;;;519310;28;1312;-83
2024/03/01 01:31:54;;;;;;;30.17;21.67;;;;;;;;;;518866;28;1365;-83
2024/03/01 01:32:10;;;;;;;30.53;22.10;;;;;;;;;;518150;28;1436;-83
2024/03/01 01:32:25;;;;;;;30.92;21.92;;;;;;;;;;517855;28;1365;-84
2024/03/01 01:32:40;;;;;;;32.03;21.53;;;;;;;;;;518173;28;1432;-84
2024/03/01 01:32:56;;;;;;;31.40;21.00;;;;;;;;;;517401;28;2117;-84
2024/03/01 01:33:11;;;;;;;32.03;21.60;;;;;;;;;;517532;28;1449;-82